createdAt,value
2019-05-19T00:00:08.763Z,1.52
2019-05-19T00:02:40.928Z,1.22
2019-05-19T00:05:10.889Z,1.45
2019-05-19T00:07:40.674Z,1.35
2019-05-19T00:10:10.685Z,1.12
2019-05-19T00:12:40.554Z,1.02
2019-05-19T00:15:10.279Z,1.35
2019-05-19T00:17:40.116Z,1.27
2019-05-19T00:20:09.850Z,1.60
2019-05-19T00:22:39.701Z,1.17
2019-05-19T00:25:09.524Z,1.47
2019-05-19T00:27:39.477Z,1.52
2019-05-19T00:30:09.877Z,1.60
2019-05-19T00:32:39.666Z,1.35
2019-05-19T00:35:09.366Z,1.35
2019-05-19T00:37:39.172Z,1.50
2019-05-19T00:40:09.340Z,1.30
2019-05-19T00:42:39.180Z,1.27
2019-05-19T00:45:08.987Z,1.30
2019-05-19T00:47:38.971Z,1.00
2019-05-19T00:50:09.100Z,1.05
2019-05-19T00:52:38.903Z,1.10
2019-05-19T00:55:08.597Z,0.93
2019-05-19T00:57:38.374Z,0.90
2019-05-19T01:00:08.820Z,0.75
2019-05-19T01:02:38.587Z,1.00
2019-05-19T01:05:08.383Z,0.90
2019-05-19T01:07:39.413Z,0.90
2019-05-19T01:10:09.158Z,0.80
2019-05-19T01:12:38.983Z,0.80
2019-05-19T01:15:08.744Z,0.70
2019-05-19T01:17:38.596Z,0.80
2019-05-19T01:20:08.394Z,0.57
2019-05-19T01:22:38.139Z,0.88
2019-05-19T01:25:08.040Z,0.90
2019-05-19T01:27:37.825Z,0.85
2019-05-19T01:30:09.709Z,1.27
2019-05-19T01:32:39.442Z,0.82
2019-05-19T01:35:09.245Z,0.80
2019-05-19T01:37:39.053Z,1.00
2019-05-19T01:40:09.996Z,0.90
2019-05-19T01:42:39.808Z,0.93
2019-05-19T01:45:09.700Z,0.95
2019-05-19T01:47:39.845Z,1.20
2019-05-19T01:50:17.520Z,0.90
2019-05-19T01:52:41.340Z,0.93
2019-05-19T01:55:12.070Z,0.60
2019-05-19T01:57:41.911Z,0.68
2019-05-19T02:00:11.695Z,0.62
2019-05-19T02:02:41.553Z,0.78
2019-05-19T02:05:11.383Z,0.70
2019-05-19T02:07:41.206Z,0.50
2019-05-19T02:10:10.913Z,0.60
2019-05-19T02:12:40.656Z,0.47
2019-05-19T02:15:10.482Z,0.70
2019-05-19T02:17:40.338Z,0.78
2019-05-19T02:20:10.229Z,0.55
2019-05-19T02:22:40.010Z,0.55
2019-05-19T02:25:09.793Z,0.53
2019-05-19T02:27:39.978Z,0.60
2019-05-19T02:30:09.790Z,0.75
2019-05-19T02:32:39.577Z,1.87
2019-05-19T02:35:09.383Z,0.70
2019-05-19T02:37:39.240Z,0.70
2019-05-19T02:40:09.067Z,0.40
2019-05-19T02:42:41.484Z,0.40
2019-05-19T02:47:42.248Z,0.60
2019-05-19T02:50:13.302Z,0.70
2019-05-19T02:52:44.147Z,0.60
2019-05-19T02:55:13.945Z,0.60
2019-05-19T02:57:43.798Z,0.60
2019-05-19T03:00:13.701Z,0.60
2019-05-19T03:02:43.450Z,0.72
2019-05-19T03:05:13.212Z,0.60
2019-05-19T03:07:42.963Z,0.60
2019-05-19T03:10:12.850Z,0.50
2019-05-19T03:12:42.660Z,0.50
2019-05-19T03:15:13.070Z,0.50
2019-05-19T03:17:43.961Z,0.43
2019-05-19T03:20:13.787Z,0.40
2019-05-19T03:22:43.601Z,0.78
2019-05-19T03:25:13.335Z,0.40
2019-05-19T03:27:43.066Z,0.53
2019-05-19T03:30:16.113Z,0.50
2019-05-19T03:32:47.521Z,0.50
2019-05-19T03:35:17.314Z,0.40
2019-05-19T03:37:47.125Z,0.30
2019-05-19T03:40:19.804Z,0.35
2019-05-19T03:42:52.414Z,0.40
2019-05-19T03:45:22.662Z,0.23
2019-05-19T03:47:52.413Z,0.40
2019-05-19T03:50:22.175Z,0.33
2019-05-19T03:52:51.951Z,0.50
2019-05-19T03:55:21.815Z,0.45
2019-05-19T03:57:51.696Z,0.42
2019-05-19T04:00:21.491Z,0.50
2019-05-19T04:02:51.301Z,0.98
2019-05-19T04:05:21.196Z,0.60
2019-05-19T04:07:51.070Z,0.60
2019-05-19T04:10:20.818Z,0.40
2019-05-19T04:12:50.541Z,0.65
2019-05-19T04:15:20.398Z,0.50
2019-05-19T04:17:50.173Z,0.70
2019-05-19T04:20:19.978Z,0.45
2019-05-19T04:22:49.716Z,0.53
2019-05-19T04:25:19.493Z,0.35
2019-05-19T04:27:49.296Z,0.40
2019-05-19T04:30:19.115Z,0.60
2019-05-19T04:32:48.870Z,0.50
2019-05-19T04:35:18.602Z,0.40
2019-05-19T04:37:48.422Z,0.30
2019-05-19T04:40:18.211Z,0.50
2019-05-19T04:42:48.021Z,0.28
2019-05-19T04:45:17.814Z,0.42
2019-05-19T04:47:47.614Z,0.40
2019-05-19T04:50:17.524Z,0.50
2019-05-19T04:52:47.310Z,0.57
2019-05-19T04:55:17.171Z,0.68
2019-05-19T04:57:47.031Z,1.05
2019-05-19T05:00:16.862Z,0.60
2019-05-19T05:02:46.633Z,0.70
2019-05-19T05:05:16.568Z,0.85
2019-05-19T05:07:46.385Z,0.53
2019-05-19T05:10:16.609Z,0.70
2019-05-19T05:12:46.410Z,0.50
2019-05-19T05:15:16.192Z,0.50
2019-05-19T05:17:45.986Z,0.50
2019-05-19T05:20:17.525Z,0.78
2019-05-19T05:22:47.246Z,0.65
2019-05-19T05:25:17.052Z,0.62
2019-05-19T05:27:46.854Z,0.65
2019-05-19T05:30:16.659Z,0.53
2019-05-19T05:32:46.535Z,0.70
2019-05-19T05:35:16.320Z,0.55
2019-05-19T05:37:46.155Z,0.68
2019-05-19T05:40:16.045Z,0.55
2019-05-19T05:42:45.858Z,0.70
2019-05-19T05:45:15.667Z,0.53
2019-05-19T05:47:45.355Z,0.78
2019-05-19T05:50:15.242Z,0.68
2019-05-19T05:52:44.990Z,0.50
2019-05-19T05:55:14.728Z,0.60
2019-05-19T05:57:44.617Z,0.78
2019-05-19T06:00:15.986Z,0.35
2019-05-19T06:02:46.004Z,0.80
2019-05-19T06:05:15.764Z,0.40
2019-05-19T06:07:45.670Z,0.57
2019-05-19T06:10:15.399Z,0.55
2019-05-19T06:12:45.180Z,0.57
2019-05-19T06:15:14.983Z,0.30
2019-05-19T06:17:44.869Z,0.30
2019-05-19T06:20:14.586Z,0.30
2019-05-19T06:22:55.893Z,0.30
2019-05-19T06:25:15.779Z,0.20
2019-05-19T06:27:45.562Z,0.37
2019-05-19T06:30:15.402Z,0.40
2019-05-19T06:32:55.983Z,0.40
2019-05-19T06:35:26.883Z,0.40
2019-05-19T06:37:56.743Z,0.57
2019-05-19T06:40:26.555Z,0.62
2019-05-19T06:42:56.347Z,0.80
2019-05-19T06:45:26.193Z,0.82
2019-05-19T06:47:56.063Z,0.60
2019-05-19T06:50:25.808Z,0.90
2019-05-19T06:53:11.204Z,0.70
2019-05-19T06:55:27.107Z,0.50
2019-05-19T06:57:56.870Z,0.90
2019-05-19T07:00:26.670Z,0.50
2019-05-19T07:02:56.399Z,0.80
2019-05-19T07:05:26.245Z,0.60
2019-05-19T07:07:56.069Z,0.80
2019-05-19T07:10:25.816Z,0.60
2019-05-19T07:12:55.641Z,1.22
2019-05-19T07:15:25.439Z,0.80
2019-05-19T07:17:56.379Z,0.68
2019-05-19T07:20:26.152Z,0.68
2019-05-19T07:22:56.018Z,0.82
2019-05-19T07:25:25.717Z,0.85
2019-05-19T07:27:55.509Z,0.85
2019-05-19T07:30:25.339Z,0.78
2019-05-19T07:32:55.117Z,1.02
2019-05-19T07:35:25.060Z,2.00
2019-05-19T07:37:54.794Z,1.70
2019-05-19T07:40:25.845Z,1.62
2019-05-19T07:42:55.689Z,2.30
2019-05-19T07:45:25.423Z,4.08
2019-05-19T07:47:55.273Z,2.27
2019-05-19T07:50:25.144Z,1.27
2019-05-19T07:52:54.948Z,1.22
2019-05-19T07:55:24.778Z,0.95
2019-05-19T07:58:00.591Z,0.98
2019-05-19T08:00:30.475Z,0.72
2019-05-19T08:03:00.220Z,0.80
2019-05-19T08:05:30.004Z,1.67
2019-05-19T08:07:59.803Z,0.93
2019-05-19T08:10:29.616Z,1.62
2019-05-19T08:12:59.435Z,1.92
2019-05-19T08:15:29.361Z,1.70
2019-05-19T08:17:59.203Z,1.80
2019-05-19T08:20:29.010Z,1.32
2019-05-19T08:22:58.810Z,0.90
2019-05-19T08:25:28.584Z,0.70
2019-05-19T08:28:07.491Z,0.50
2019-05-19T08:30:30.103Z,1.20
2019-05-19T08:33:00.017Z,0.82
2019-05-19T08:35:29.778Z,1.10
2019-05-19T08:37:59.570Z,2.37
2019-05-19T08:40:29.400Z,1.25
2019-05-19T08:42:59.370Z,1.00
2019-05-19T08:45:29.097Z,1.07
2019-05-19T08:47:58.931Z,1.10
2019-05-19T08:50:28.712Z,1.12
2019-05-19T08:52:58.529Z,1.20
2019-05-19T08:55:28.391Z,1.02
2019-05-19T08:57:58.227Z,1.50
2019-05-19T09:00:28.086Z,0.80
2019-05-19T09:02:57.885Z,0.90
2019-05-19T09:05:27.656Z,1.10
2019-05-19T09:07:57.534Z,1.10
2019-05-19T09:10:27.422Z,1.17
2019-05-19T09:12:57.148Z,1.65
2019-05-19T09:15:27.079Z,1.02
2019-05-19T09:17:56.871Z,0.80
2019-05-19T09:20:26.649Z,1.30
2019-05-19T09:22:56.585Z,1.15
2019-05-19T09:25:26.381Z,1.20
2019-05-19T09:27:56.189Z,1.30
2019-05-19T09:30:25.966Z,1.47
2019-05-19T09:32:55.781Z,1.35
2019-05-19T09:35:25.548Z,1.80
2019-05-19T09:37:55.321Z,1.70
2019-05-19T09:40:26.732Z,1.20
2019-05-19T09:42:56.861Z,1.50
2019-05-19T09:45:26.598Z,1.82
2019-05-19T09:47:56.416Z,2.67
2019-05-19T09:50:26.165Z,2.70
2019-05-19T09:52:55.841Z,2.65
2019-05-19T09:55:25.666Z,1.98
2019-05-19T09:57:55.471Z,1.65
2019-05-19T10:00:25.288Z,1.70
2019-05-19T10:02:55.083Z,1.72
2019-05-19T10:05:24.870Z,1.65
2019-05-19T10:07:54.686Z,1.57
2019-05-19T10:10:25.700Z,2.25
2019-05-19T10:12:55.485Z,1.70
2019-05-19T10:15:25.368Z,1.70
2019-05-19T10:17:55.161Z,1.62
2019-05-19T10:20:25.050Z,1.90
2019-05-19T10:22:54.911Z,1.90
2019-05-19T10:25:24.908Z,1.65
2019-05-19T10:27:55.042Z,1.67
2019-05-19T10:30:25.040Z,2.33
2019-05-19T10:32:54.832Z,1.42
2019-05-19T10:35:24.566Z,1.17
2019-05-19T10:37:54.359Z,1.87
2019-05-19T10:40:24.081Z,3.45
2019-05-19T10:42:53.825Z,2.58
2019-05-19T10:45:24.269Z,3.05
2019-05-19T10:47:54.028Z,2.35
2019-05-19T10:50:23.855Z,2.35
2019-05-19T10:52:53.678Z,2.00
2019-05-19T10:55:35.396Z,1.70
2019-05-19T10:57:54.972Z,1.70
2019-05-19T11:00:24.715Z,2.17
2019-05-19T11:02:54.447Z,1.90
2019-05-19T11:05:24.266Z,2.17
2019-05-19T11:07:54.062Z,2.55
2019-05-19T11:10:23.845Z,2.25
2019-05-19T11:12:53.663Z,2.47
2019-05-19T11:15:23.469Z,2.60
2019-05-19T11:17:53.587Z,2.10
2019-05-19T11:20:23.391Z,2.33
2019-05-19T11:22:53.214Z,2.40
2019-05-19T11:25:33.381Z,2.40
2019-05-19T11:27:54.509Z,2.53
2019-05-19T11:30:24.227Z,2.67
2019-05-19T11:32:54.032Z,3.00
2019-05-19T11:35:23.795Z,3.08
2019-05-19T11:37:53.545Z,2.67
2019-05-19T11:40:23.346Z,2.80
2019-05-19T11:42:53.115Z,3.12
2019-05-19T11:45:22.983Z,2.60
2019-05-19T11:47:52.802Z,2.90
2019-05-19T11:50:22.554Z,3.00
2019-05-19T11:52:52.372Z,2.80
2019-05-19T11:55:22.098Z,2.40
2019-05-19T11:57:51.903Z,3.20
2019-05-19T12:00:21.871Z,2.83
2019-05-19T12:02:51.683Z,2.77
2019-05-19T12:05:21.441Z,3.30
2019-05-19T12:07:51.314Z,3.65
2019-05-19T12:10:21.190Z,4.25
2019-05-19T12:12:51.047Z,3.80
2019-05-19T12:15:20.785Z,4.58
2019-05-19T12:17:50.453Z,3.72
2019-05-19T12:20:20.326Z,3.67
2019-05-19T12:22:50.053Z,4.45
2019-05-19T12:25:19.780Z,3.27
2019-05-19T12:27:49.550Z,3.67
2019-05-19T12:30:19.502Z,2.85
2019-05-19T12:32:49.390Z,3.30
2019-05-19T12:35:19.268Z,2.65
2019-05-19T12:37:49.077Z,3.70
2019-05-19T12:40:22.318Z,3.30
2019-05-19T12:42:50.182Z,2.85
2019-05-19T12:45:19.980Z,3.10
2019-05-19T12:47:49.770Z,3.12
2019-05-19T12:50:19.527Z,3.25
2019-05-19T12:52:49.405Z,3.62
2019-05-19T12:55:20.901Z,2.85
2019-05-19T12:57:52.008Z,2.27
2019-05-19T13:00:21.785Z,2.35
2019-05-19T13:02:51.566Z,1.90
2019-05-19T13:05:21.316Z,1.77
2019-05-19T13:07:51.318Z,2.47
2019-05-19T13:10:21.124Z,2.10
2019-05-19T13:12:50.785Z,1.98
2019-05-19T13:15:20.598Z,2.25
2019-05-19T13:17:50.452Z,1.75
2019-05-19T13:20:20.233Z,1.60
2019-05-19T13:22:49.987Z,1.30
2019-05-19T13:25:19.739Z,1.65
2019-05-19T13:27:49.478Z,1.20
2019-05-19T13:30:19.292Z,1.10
2019-05-19T13:32:48.985Z,1.10
2019-05-19T13:35:18.698Z,1.20
2019-05-19T13:37:48.524Z,1.10
2019-05-19T13:40:18.261Z,1.20
2019-05-19T13:42:48.008Z,1.30
2019-05-19T13:45:17.838Z,1.50
2019-05-19T13:47:47.751Z,1.00
2019-05-19T13:50:17.651Z,1.10
2019-05-19T13:52:47.448Z,1.45
2019-05-19T13:55:17.269Z,1.30
2019-05-19T13:57:47.048Z,1.62
2019-05-19T14:00:16.837Z,1.20
2019-05-19T14:02:46.645Z,1.70
2019-05-19T14:05:16.328Z,1.40
2019-05-19T14:07:47.260Z,1.45
2019-05-19T14:10:17.011Z,1.62
2019-05-19T14:12:46.919Z,1.40
2019-05-19T14:15:17.956Z,1.57
2019-05-19T14:17:47.847Z,1.32
2019-05-19T14:20:17.625Z,2.40
2019-05-19T14:22:47.418Z,1.37
2019-05-19T14:25:17.194Z,1.40
2019-05-19T14:27:46.952Z,1.25
2019-05-19T14:30:16.774Z,1.20
2019-05-19T14:32:46.542Z,1.30
2019-05-19T14:35:16.346Z,1.47
2019-05-19T14:37:46.114Z,1.20
2019-05-19T14:40:15.864Z,1.50
2019-05-19T14:42:50.009Z,1.47
2019-05-19T14:45:19.930Z,1.80
2019-05-19T14:47:49.837Z,1.80
2019-05-19T14:50:19.630Z,2.20
2019-05-19T14:52:49.362Z,1.92
2019-05-19T14:55:19.251Z,2.35
2019-05-19T14:57:48.982Z,1.90
2019-05-19T15:00:18.810Z,2.10
2019-05-19T15:02:48.534Z,1.57
2019-05-19T15:05:18.246Z,1.47
2019-05-19T15:07:49.107Z,1.60
2019-05-19T15:10:18.903Z,1.90
2019-05-19T15:12:48.698Z,1.80
2019-05-19T15:15:18.438Z,2.17
2019-05-19T15:17:49.472Z,1.80
2019-05-19T15:20:19.190Z,1.72
2019-05-19T15:22:49.023Z,1.90
2019-05-19T15:25:18.757Z,1.75
2019-05-19T15:27:59.837Z,2.50
2019-05-19T15:30:19.952Z,1.80
2019-05-19T15:32:49.685Z,2.00
2019-05-19T15:35:19.480Z,3.83
2019-05-19T15:37:49.215Z,1.47
2019-05-19T15:40:19.142Z,1.82
2019-05-19T15:42:49.095Z,1.60
2019-05-19T15:45:18.817Z,1.80
2019-05-19T15:47:48.637Z,1.95
2019-05-19T15:50:18.375Z,1.67
2019-05-19T15:52:48.285Z,1.72
2019-05-19T15:55:18.114Z,1.90
2019-05-19T15:57:47.956Z,2.33
2019-05-19T16:00:18.257Z,1.92
2019-05-19T16:02:47.934Z,2.40
2019-05-19T16:05:17.768Z,2.33
2019-05-19T16:07:47.662Z,2.37
2019-05-19T16:10:17.397Z,2.87
2019-05-19T16:12:48.288Z,2.80
2019-05-19T16:15:18.044Z,3.37
2019-05-19T16:17:47.805Z,4.67
2019-05-19T16:20:17.615Z,3.30
2019-05-19T16:22:47.451Z,3.40
2019-05-19T16:25:17.221Z,5.10
2019-05-19T16:27:46.970Z,5.03
2019-05-19T16:30:16.685Z,4.30
2019-05-19T16:32:46.521Z,4.08
2019-05-19T16:35:16.281Z,3.72
2019-05-19T16:37:46.253Z,4.33
2019-05-19T16:40:16.223Z,3.92
2019-05-19T16:42:46.058Z,9.83
2019-05-19T16:45:15.935Z,78.05
2019-05-19T16:47:45.771Z,10.90
2019-05-19T16:50:15.533Z,16.77
2019-05-19T16:52:45.218Z,11.93
2019-05-19T16:55:25.462Z,10.90
2019-05-19T16:57:55.323Z,6.78
2019-05-19T17:00:26.256Z,5.90
2019-05-19T17:02:56.083Z,6.47
2019-05-19T17:05:25.885Z,6.17
2019-05-19T17:07:56.232Z,14.45
2019-05-19T17:10:26.004Z,11.22
2019-05-19T17:12:55.927Z,10.10
2019-05-19T17:15:25.721Z,29.45
2019-05-19T17:17:56.461Z,19.00
2019-05-19T17:20:26.229Z,19.73
2019-05-19T17:22:56.337Z,15.65
2019-05-19T17:25:26.165Z,7.12
2019-05-19T17:27:56.018Z,7.42
2019-05-19T17:30:25.828Z,6.83
2019-05-19T17:32:55.629Z,7.87
2019-05-19T17:35:25.401Z,7.97
2019-05-19T17:37:55.152Z,7.17
2019-05-19T17:40:24.965Z,8.58
2019-05-19T17:42:54.733Z,7.85
2019-05-19T17:45:24.475Z,7.70
2019-05-19T17:48:08.810Z,7.95
2019-05-19T17:50:31.638Z,9.00
2019-05-19T17:53:01.585Z,36.25
2019-05-19T17:55:34.958Z,17.20
2019-05-19T17:58:04.771Z,21.37
2019-05-19T18:00:37.481Z,9.75
2019-05-19T18:03:07.263Z,7.87
2019-05-19T18:05:37.402Z,8.70
2019-05-19T18:08:07.185Z,8.23
2019-05-19T18:10:36.995Z,8.83
2019-05-19T18:13:06.917Z,7.42
2019-05-19T18:15:37.219Z,7.87
2019-05-19T18:18:07.016Z,9.63
2019-05-19T18:20:36.880Z,10.75
2019-05-19T18:23:06.755Z,8.83
2019-05-19T18:25:36.423Z,8.68
2019-05-19T18:28:06.205Z,9.90
2019-05-19T18:30:35.999Z,9.60
2019-05-19T18:33:05.866Z,10.08
2019-05-19T18:35:35.667Z,11.83
2019-05-19T18:38:05.629Z,12.30
2019-05-19T18:40:35.359Z,12.82
2019-05-19T18:43:05.160Z,10.28
2019-05-19T18:45:34.978Z,11.57
2019-05-19T18:48:05.955Z,11.05
2019-05-19T18:50:35.708Z,10.72
2019-05-19T18:53:05.479Z,9.63
2019-05-19T18:55:35.225Z,9.48
2019-05-19T18:58:05.126Z,10.55
2019-05-19T19:00:36.744Z,11.45
2019-05-19T19:03:06.860Z,35.77
2019-05-19T19:05:36.693Z,16.27
2019-05-19T19:08:06.522Z,22.52
2019-05-19T19:10:36.289Z,13.55
2019-05-19T19:13:06.117Z,11.08
2019-05-19T19:15:35.887Z,11.28
2019-05-19T19:18:05.684Z,11.12
2019-05-19T19:20:36.124Z,11.75
2019-05-19T19:23:05.968Z,12.65
2019-05-19T19:25:35.909Z,12.90
2019-05-19T19:28:06.199Z,13.18
2019-05-19T19:30:36.482Z,11.43
2019-05-19T19:33:06.371Z,10.53
2019-05-19T19:35:39.265Z,11.08
2019-05-19T19:38:08.277Z,23.63
2019-05-19T19:40:38.113Z,17.50
2019-05-19T19:43:08.312Z,26.90
2019-05-19T19:45:38.433Z,16.37
2019-05-19T19:48:08.553Z,24.20
2019-05-19T19:50:39.082Z,26.12
2019-05-19T19:53:09.404Z,16.77
2019-05-19T19:55:39.739Z,12.73
2019-05-19T19:58:09.479Z,15.65
2019-05-19T20:00:41.202Z,15.10
2019-05-19T20:03:10.988Z,14.75
2019-05-19T20:05:42.056Z,17.12
2019-05-19T20:08:11.831Z,16.77
2019-05-19T20:10:41.588Z,18.20
2019-05-19T20:13:11.299Z,21.68
2019-05-19T20:15:41.146Z,22.45
2019-05-19T20:18:10.966Z,22.45
2019-05-19T20:20:40.866Z,29.48
2019-05-19T20:23:10.740Z,40.10
2019-05-19T20:25:40.546Z,23.65
2019-05-19T20:28:10.342Z,15.55
2019-05-19T20:30:40.126Z,20.82
2019-05-19T20:33:09.886Z,20.75
2019-05-19T20:35:39.680Z,11.90
2019-05-19T20:38:09.622Z,12.50
2019-05-19T20:40:39.454Z,17.62
2019-05-19T20:43:09.143Z,10.35
2019-05-19T20:45:38.925Z,8.73
2019-05-19T20:48:08.617Z,11.10
2019-05-19T20:50:38.399Z,16.42
2019-05-19T20:53:08.269Z,32.95
2019-05-19T20:55:38.050Z,29.07
2019-05-19T20:58:07.814Z,22.30
2019-05-19T21:00:49.423Z,9.90
2019-05-19T21:03:09.041Z,8.63
2019-05-19T21:05:38.810Z,8.13
2019-05-19T21:08:08.718Z,12.53
2019-05-19T21:10:38.818Z,9.23
2019-05-19T21:13:08.656Z,8.98
2019-05-19T21:15:38.529Z,11.95
2019-05-19T21:18:08.268Z,8.70
2019-05-19T21:20:38.091Z,18.02
2019-05-19T21:23:07.947Z,6.70
2019-05-19T21:25:37.736Z,7.10
2019-05-19T21:28:07.650Z,5.85
2019-05-19T21:30:37.437Z,6.42
2019-05-19T21:33:07.324Z,10.90
2019-05-19T21:35:37.370Z,7.60
2019-05-19T21:38:07.085Z,7.92
2019-05-19T21:40:36.949Z,6.67
2019-05-19T21:43:06.737Z,8.35
2019-05-19T21:45:36.716Z,11.73
2019-05-19T21:48:06.585Z,9.43
2019-05-19T21:50:36.446Z,10.08
2019-05-19T21:53:06.684Z,8.93
2019-05-19T21:55:37.746Z,6.53
2019-05-19T21:58:08.680Z,6.87
2019-05-19T22:00:39.245Z,7.00
2019-05-19T22:03:09.172Z,7.25
2019-05-19T22:05:52.545Z,7.10
2019-05-19T22:08:12.167Z,6.87
2019-05-19T22:10:41.929Z,5.55
2019-05-19T22:13:11.798Z,5.80
2019-05-19T22:15:41.691Z,6.25
2019-05-19T22:18:11.529Z,5.70
2019-05-19T22:20:41.578Z,6.28
2019-05-19T22:23:11.251Z,6.45
2019-05-19T22:25:41.011Z,4.85
2019-05-19T22:28:10.771Z,6.20
2019-05-19T22:30:40.497Z,6.95
2019-05-19T22:33:10.402Z,6.45
2019-05-19T22:35:40.698Z,6.50
2019-05-19T22:38:10.523Z,6.12
2019-05-19T22:40:40.393Z,6.55
2019-05-19T22:43:11.230Z,5.87
2019-05-19T22:45:41.040Z,6.72
2019-05-19T22:48:10.821Z,6.55
2019-05-19T22:50:40.650Z,6.62
2019-05-19T22:53:10.450Z,5.65
2019-05-19T22:55:40.257Z,6.10
2019-05-19T22:58:10.166Z,6.62
2019-05-19T23:00:39.979Z,6.25
2019-05-19T23:03:09.831Z,6.28
2019-05-19T23:05:39.585Z,6.35
2019-05-19T23:08:09.509Z,6.17
2019-05-19T23:10:39.326Z,6.78
2019-05-19T23:13:09.114Z,7.28
2019-05-19T23:15:38.916Z,7.15
2019-05-19T23:18:08.727Z,7.33
2019-05-19T23:20:38.748Z,7.37
2019-05-19T23:23:08.874Z,7.67
2019-05-19T23:25:38.754Z,7.10
2019-05-19T23:28:08.484Z,6.92
2019-05-19T23:30:38.244Z,6.53
2019-05-19T23:33:08.110Z,6.78
2019-05-19T23:35:37.963Z,7.22
2019-05-19T23:38:07.815Z,8.30
2019-05-19T23:40:37.567Z,7.97
2019-05-19T23:43:07.405Z,8.00
2019-05-19T23:45:37.163Z,7.95
2019-05-19T23:48:06.957Z,6.83
2019-05-19T23:50:36.788Z,6.53
2019-05-19T23:53:06.561Z,7.15
2019-05-19T23:55:36.505Z,6.87
2019-05-19T23:58:06.223Z,7.37
